sensor_id;sensor_type;location;lat;lon;timestamp;P1;durP1;ratioP1;P2;durP2;ratioP2
19127;SDS011;9696;53.686;10.094;2023-03-14T00:00:17;3.60;;;1.60;;
19127;SDS011;9696;53.686;10.094;2023-03-14T00:02:52;9.13;;;1.70;;
19127;SDS011;9696;53.686;10.094;2023-03-14T00:05:22;2.97;;;1.47;;
19127;SDS011;9696;53.686;10.094;2023-03-14T00:07:51;5.83;;;1.63;;
19127;SDS011;9696;53.686;10.094;2023-03-14T00:10:20;6.60;;;1.97;;
19127;SDS011;9696;53.686;10.094;2023-03-14T00:12:49;7.00;;;1.30;;
19127;SDS011;9696;53.686;10.094;2023-03-14T00:15:19;3.30;;;1.30;;
19127;SDS011;9696;53.686;10.094;2023-03-14T00:17:48;6.17;;;1.57;;
19127;SDS011;9696;53.686;10.094;2023-03-14T00:20:19;4.00;;;1.50;;
19127;SDS011;9696;53.686;10.094;2023-03-14T00:22:48;4.63;;;1.27;;
19127;SDS011;9696;53.686;10.094;2023-03-14T00:25:17;10.23;;;1.93;;
19127;SDS011;9696;53.686;10.094;2023-03-14T00:27:46;5.17;;;1.57;;
19127;SDS011;9696;53.686;10.094;2023-03-14T00:30:17;4.97;;;1.47;;
19127;SDS011;9696;53.686;10.094;2023-03-14T00:32:47;6.03;;;1.80;;
19127;SDS011;9696;53.686;10.094;2023-03-14T00:35:16;5.17;;;1.70;;
19127;SDS011;9696;53.686;10.094;2023-03-14T00:37:47;5.83;;;1.97;;
19127;SDS011;9696;53.686;10.094;2023-03-14T00:40:16;6.77;;;1.80;;
19127;SDS011;9696;53.686;10.094;2023-03-14T00:42:48;5.87;;;1.63;;
19127;SDS011;9696;53.686;10.094;2023-03-14T00:45:19;8.30;;;2.30;;
19127;SDS011;9696;53.686;10.094;2023-03-14T00:47:48;11.07;;;2.00;;
19127;SDS011;9696;53.686;10.094;2023-03-14T00:50:18;4.97;;;1.67;;
19127;SDS011;9696;53.686;10.094;2023-03-14T00:52:47;5.23;;;1.40;;
19127;SDS011;9696;53.686;10.094;2023-03-14T00:55:17;10.37;;;1.40;;
19127;SDS011;9696;53.686;10.094;2023-03-14T00:57:46;7.73;;;1.70;;
19127;SDS011;9696;53.686;10.094;2023-03-14T01:00:15;7.60;;;1.87;;
19127;SDS011;9696;53.686;10.094;2023-03-14T01:02:44;8.50;;;1.97;;
19127;SDS011;9696;53.686;10.094;2023-03-14T01:05:14;8.77;;;1.43;;
19127;SDS011;9696;53.686;10.094;2023-03-14T01:07:44;4.93;;;1.40;;
19127;SDS011;9696;53.686;10.094;2023-03-14T01:10:14;5.40;;;1.60;;
19127;SDS011;9696;53.686;10.094;2023-03-14T01:12:43;14.60;;;1.80;;
19127;SDS011;9696;53.686;10.094;2023-03-14T01:15:12;10.83;;;1.80;;
19127;SDS011;9696;53.686;10.094;2023-03-14T01:17:41;8.80;;;1.87;;
19127;SDS011;9696;53.686;10.094;2023-03-14T01:20:12;8.97;;;1.53;;
19127;SDS011;9696;53.686;10.094;2023-03-14T01:22:43;12.40;;;2.40;;
19127;SDS011;9696;53.686;10.094;2023-03-14T01:25:14;8.83;;;1.97;;
19127;SDS011;9696;53.686;10.094;2023-03-14T01:27:45;9.00;;;1.73;;
19127;SDS011;9696;53.686;10.094;2023-03-14T01:30:14;8.10;;;1.73;;
19127;SDS011;9696;53.686;10.094;2023-03-14T01:32:43;11.90;;;1.87;;
19127;SDS011;9696;53.686;10.094;2023-03-14T01:35:13;5.77;;;1.43;;
19127;SDS011;9696;53.686;10.094;2023-03-14T01:37:42;10.13;;;1.90;;
19127;SDS011;9696;53.686;10.094;2023-03-14T01:40:18;6.97;;;1.90;;
19127;SDS011;9696;53.686;10.094;2023-03-14T01:42:54;8.27;;;1.27;;
19127;SDS011;9696;53.686;10.094;2023-03-14T01:48:31;9.20;;;1.83;;
19127;SDS011;9696;53.686;10.094;2023-03-14T01:51:03;9.23;;;1.70;;
19127;SDS011;9696;53.686;10.094;2023-03-14T01:53:34;9.97;;;2.10;;
19127;SDS011;9696;53.686;10.094;2023-03-14T01:56:08;7.60;;;1.53;;
19127;SDS011;9696;53.686;10.094;2023-03-14T01:58:40;8.37;;;2.00;;
19127;SDS011;9696;53.686;10.094;2023-03-14T02:01:13;15.07;;;1.80;;
19127;SDS011;9696;53.686;10.094;2023-03-14T02:03:48;8.37;;;1.57;;
19127;SDS011;9696;53.686;10.094;2023-03-14T02:06:23;10.30;;;1.83;;
19127;SDS011;9696;53.686;10.094;2023-03-14T02:08:59;13.33;;;1.87;;
19127;SDS011;9696;53.686;10.094;2023-03-14T02:11:33;10.07;;;1.77;;
19127;SDS011;9696;53.686;10.094;2023-03-14T02:14:06;8.07;;;1.90;;
19127;SDS011;9696;53.686;10.094;2023-03-14T02:17:00;10.10;;;1.70;;
19127;SDS011;9696;53.686;10.094;2023-03-14T02:19:55;7.40;;;1.90;;
19127;SDS011;9696;53.686;10.094;2023-03-14T02:22:44;7.87;;;2.03;;
19127;SDS011;9696;53.686;10.094;2023-03-14T02:25:16;6.30;;;1.67;;
19127;SDS011;9696;53.686;10.094;2023-03-14T02:27:53;7.27;;;2.00;;
19127;SDS011;9696;53.686;10.094;2023-03-14T02:30:24;13.07;;;2.00;;
19127;SDS011;9696;53.686;10.094;2023-03-14T02:32:57;8.00;;;1.63;;
19127;SDS011;9696;53.686;10.094;2023-03-14T02:35:29;3.17;;;1.40;;
19127;SDS011;9696;53.686;10.094;2023-03-14T02:38:04;5.70;;;2.00;;
19127;SDS011;9696;53.686;10.094;2023-03-14T02:40:41;4.47;;;1.30;;
19127;SDS011;9696;53.686;10.094;2023-03-14T02:43:12;7.00;;;1.33;;
19127;SDS011;9696;53.686;10.094;2023-03-14T02:45:48;5.60;;;1.83;;
19127;SDS011;9696;53.686;10.094;2023-03-14T02:48:22;9.33;;;1.73;;
19127;SDS011;9696;53.686;10.094;2023-03-14T02:50:56;7.93;;;1.67;;
19127;SDS011;9696;53.686;10.094;2023-03-14T02:53:28;4.00;;;1.33;;
19127;SDS011;9696;53.686;10.094;2023-03-14T02:56:04;1.80;;;1.20;;
19127;SDS011;9696;53.686;10.094;2023-03-14T02:58:36;5.53;;;1.50;;
19127;SDS011;9696;53.686;10.094;2023-03-14T03:01:19;5.07;;;1.83;;
19127;SDS011;9696;53.686;10.094;2023-03-14T03:03:48;5.17;;;1.63;;
19127;SDS011;9696;53.686;10.094;2023-03-14T03:06:19;4.63;;;1.80;;
19127;SDS011;9696;53.686;10.094;2023-03-14T03:08:48;8.83;;;2.10;;
19127;SDS011;9696;53.686;10.094;2023-03-14T03:11:17;5.60;;;1.87;;
19127;SDS011;9696;53.686;10.094;2023-03-14T03:13:48;7.80;;;2.10;;
19127;SDS011;9696;53.686;10.094;2023-03-14T03:16:17;6.60;;;2.13;;
19127;SDS011;9696;53.686;10.094;2023-03-14T03:18:46;8.00;;;2.07;;
19127;SDS011;9696;53.686;10.094;2023-03-14T03:21:15;7.17;;;1.80;;
19127;SDS011;9696;53.686;10.094;2023-03-14T03:23:45;6.60;;;2.20;;
19127;SDS011;9696;53.686;10.094;2023-03-14T03:26:14;3.43;;;1.73;;
19127;SDS011;9696;53.686;10.094;2023-03-14T03:28:44;4.83;;;1.80;;
19127;SDS011;9696;53.686;10.094;2023-03-14T03:31:16;6.60;;;1.90;;
19127;SDS011;9696;53.686;10.094;2023-03-14T03:33:46;6.63;;;1.80;;
19127;SDS011;9696;53.686;10.094;2023-03-14T03:36:17;5.40;;;2.03;;
19127;SDS011;9696;53.686;10.094;2023-03-14T03:38:49;5.43;;;2.10;;
19127;SDS011;9696;53.686;10.094;2023-03-14T03:41:19;3.87;;;2.17;;
19127;SDS011;9696;53.686;10.094;2023-03-14T03:43:49;7.40;;;1.90;;
19127;SDS011;9696;53.686;10.094;2023-03-14T03:46:20;6.37;;;2.53;;
19127;SDS011;9696;53.686;10.094;2023-03-14T03:48:53;5.07;;;2.17;;
19127;SDS011;9696;53.686;10.094;2023-03-14T03:51:23;9.13;;;1.73;;
19127;SDS011;9696;53.686;10.094;2023-03-14T03:53:52;6.80;;;2.03;;
19127;SDS011;9696;53.686;10.094;2023-03-14T03:56:27;4.37;;;1.27;;
19127;SDS011;9696;53.686;10.094;2023-03-14T03:58:59;3.80;;;1.50;;
19127;SDS011;9696;53.686;10.094;2023-03-14T04:01:29;5.37;;;1.93;;
19127;SDS011;9696;53.686;10.094;2023-03-14T04:03:59;3.13;;;1.40;;
19127;SDS011;9696;53.686;10.094;2023-03-14T04:06:29;3.77;;;1.83;;
19127;SDS011;9696;53.686;10.094;2023-03-14T04:08:59;5.63;;;1.70;;
19127;SDS011;9696;53.686;10.094;2023-03-14T04:11:40;4.40;;;1.87;;
19127;SDS011;9696;53.686;10.094;2023-03-14T04:14:21;4.40;;;1.77;;
19127;SDS011;9696;53.686;10.094;2023-03-14T04:17:07;4.07;;;1.50;;
19127;SDS011;9696;53.686;10.094;2023-03-14T04:19:36;10.57;;;2.13;;
19127;SDS011;9696;53.686;10.094;2023-03-14T04:22:06;3.77;;;1.47;;
19127;SDS011;9696;53.686;10.094;2023-03-14T04:24:44;9.77;;;1.83;;
19127;SDS011;9696;53.686;10.094;2023-03-14T04:27:13;5.27;;;1.73;;
19127;SDS011;9696;53.686;10.094;2023-03-14T04:29:44;2.80;;;1.47;;
19127;SDS011;9696;53.686;10.094;2023-03-14T04:32:19;8.33;;;1.80;;
19127;SDS011;9696;53.686;10.094;2023-03-14T04:34:49;2.23;;;1.23;;
19127;SDS011;9696;53.686;10.094;2023-03-14T04:37:18;3.93;;;1.90;;
19127;SDS011;9696;53.686;10.094;2023-03-14T04:39:47;6.80;;;2.10;;
19127;SDS011;9696;53.686;10.094;2023-03-14T04:42:25;5.73;;;1.87;;
19127;SDS011;9696;53.686;10.094;2023-03-14T04:44:55;7.67;;;2.10;;
19127;SDS011;9696;53.686;10.094;2023-03-14T04:47:27;5.80;;;1.63;;
19127;SDS011;9696;53.686;10.094;2023-03-14T04:49:56;2.03;;;1.40;;
19127;SDS011;9696;53.686;10.094;2023-03-14T04:52:26;3.60;;;1.50;;
19127;SDS011;9696;53.686;10.094;2023-03-14T04:54:56;9.20;;;1.90;;
19127;SDS011;9696;53.686;10.094;2023-03-14T04:57:26;5.70;;;1.80;;
19127;SDS011;9696;53.686;10.094;2023-03-14T04:59:55;4.23;;;1.20;;
19127;SDS011;9696;53.686;10.094;2023-03-14T05:02:45;0.70;;;0.70;;
19127;SDS011;9696;53.686;10.094;2023-03-14T05:05:37;5.00;;;0.70;;
19127;SDS011;9696;53.686;10.094;2023-03-14T05:08:12;3.10;;;0.50;;
19127;SDS011;9696;53.686;10.094;2023-03-14T05:11:11;1.63;;;0.50;;
19127;SDS011;9696;53.686;10.094;2023-03-14T05:13:57;2.40;;;0.70;;
19127;SDS011;9696;53.686;10.094;2023-03-14T05:16:45;2.63;;;0.60;;
19127;SDS011;9696;53.686;10.094;2023-03-14T05:19:29;1.47;;;0.63;;
19127;SDS011;9696;53.686;10.094;2023-03-14T05:22:20;2.37;;;1.00;;
19127;SDS011;9696;53.686;10.094;2023-03-14T05:25:18;1.47;;;0.57;;
19127;SDS011;9696;53.686;10.094;2023-03-14T05:28:08;2.73;;;0.60;;
19127;SDS011;9696;53.686;10.094;2023-03-14T05:31:06;0.97;;;0.30;;
19127;SDS011;9696;53.686;10.094;2023-03-14T05:33:58;2.07;;;0.60;;
19127;SDS011;9696;53.686;10.094;2023-03-14T05:36:34;1.13;;;0.50;;
19127;SDS011;9696;53.686;10.094;2023-03-14T05:39:15;0.60;;;0.60;;
19127;SDS011;9696;53.686;10.094;2023-03-14T05:41:57;0.70;;;0.63;;
19127;SDS011;9696;53.686;10.094;2023-03-14T05:44:52;1.13;;;0.60;;
19127;SDS011;9696;53.686;10.094;2023-03-14T05:47:39;0.93;;;0.57;;
19127;SDS011;9696;53.686;10.094;2023-03-14T05:50:47;1.10;;;0.90;;
19127;SDS011;9696;53.686;10.094;2023-03-14T05:53:43;1.83;;;1.10;;
19127;SDS011;9696;53.686;10.094;2023-03-14T05:56:30;2.47;;;1.00;;
19127;SDS011;9696;53.686;10.094;2023-03-14T05:59:07;2.00;;;1.10;;
19127;SDS011;9696;53.686;10.094;2023-03-14T06:02:02;0.93;;;0.80;;
19127;SDS011;9696;53.686;10.094;2023-03-14T06:04:42;3.60;;;1.13;;
19127;SDS011;9696;53.686;10.094;2023-03-14T06:07:12;6.67;;;1.27;;
19127;SDS011;9696;53.686;10.094;2023-03-14T06:09:43;5.50;;;1.13;;
19127;SDS011;9696;53.686;10.094;2023-03-14T06:12:15;3.17;;;1.03;;
19127;SDS011;9696;53.686;10.094;2023-03-14T06:14:45;1.80;;;1.23;;
19127;SDS011;9696;53.686;10.094;2023-03-14T06:17:15;3.13;;;1.50;;
19127;SDS011;9696;53.686;10.094;2023-03-14T06:20:01;6.10;;;1.97;;
19127;SDS011;9696;53.686;10.094;2023-03-14T06:22:31;5.77;;;1.63;;
19127;SDS011;9696;53.686;10.094;2023-03-14T06:25:03;3.07;;;1.83;;
19127;SDS011;9696;53.686;10.094;2023-03-14T06:27:33;5.07;;;2.20;;
19127;SDS011;9696;53.686;10.094;2023-03-14T06:30:03;5.13;;;2.43;;
19127;SDS011;9696;53.686;10.094;2023-03-14T06:32:34;5.20;;;2.03;;
19127;SDS011;9696;53.686;10.094;2023-03-14T06:35:08;9.70;;;2.20;;
19127;SDS011;9696;53.686;10.094;2023-03-14T06:37:40;2.20;;;1.73;;
19127;SDS011;9696;53.686;10.094;2023-03-14T06:40:12;10.83;;;2.23;;
19127;SDS011;9696;53.686;10.094;2023-03-14T06:42:54;5.17;;;2.37;;
19127;SDS011;9696;53.686;10.094;2023-03-14T06:45:25;6.47;;;2.80;;
19127;SDS011;9696;53.686;10.094;2023-03-14T06:48:00;5.07;;;2.27;;
19127;SDS011;9696;53.686;10.094;2023-03-14T06:50:40;1.33;;;1.23;;
19127;SDS011;9696;53.686;10.094;2023-03-14T06:53:09;7.10;;;3.10;;
19127;SDS011;9696;53.686;10.094;2023-03-14T06:55:42;4.57;;;2.17;;
19127;SDS011;9696;53.686;10.094;2023-03-14T06:58:14;6.67;;;2.87;;
19127;SDS011;9696;53.686;10.094;2023-03-14T07:00:44;10.23;;;2.87;;
19127;SDS011;9696;53.686;10.094;2023-03-14T07:03:19;5.17;;;1.90;;
19127;SDS011;9696;53.686;10.094;2023-03-14T07:05:50;6.20;;;2.70;;
19127;SDS011;9696;53.686;10.094;2023-03-14T07:08:20;5.67;;;2.70;;
19127;SDS011;9696;53.686;10.094;2023-03-14T07:10:51;6.20;;;2.20;;
19127;SDS011;9696;53.686;10.094;2023-03-14T07:13:20;7.97;;;2.47;;
19127;SDS011;9696;53.686;10.094;2023-03-14T07:15:56;3.77;;;2.13;;
19127;SDS011;9696;53.686;10.094;2023-03-14T07:18:25;4.53;;;2.27;;
19127;SDS011;9696;53.686;10.094;2023-03-14T07:20:55;7.10;;;2.20;;
19127;SDS011;9696;53.686;10.094;2023-03-14T07:23:24;12.53;;;2.07;;
19127;SDS011;9696;53.686;10.094;2023-03-14T07:25:55;4.23;;;2.33;;
19127;SDS011;9696;53.686;10.094;2023-03-14T07:28:26;5.00;;;2.50;;
19127;SDS011;9696;53.686;10.094;2023-03-14T07:31:01;4.27;;;1.80;;
19127;SDS011;9696;53.686;10.094;2023-03-14T07:33:32;4.07;;;2.10;;
19127;SDS011;9696;53.686;10.094;2023-03-14T07:36:02;6.30;;;2.03;;
19127;SDS011;9696;53.686;10.094;2023-03-14T07:38:32;3.17;;;1.17;;
19127;SDS011;9696;53.686;10.094;2023-03-14T07:41:23;7.63;;;1.87;;
19127;SDS011;9696;53.686;10.094;2023-03-14T07:44:12;4.10;;;1.57;;
19127;SDS011;9696;53.686;10.094;2023-03-14T07:46:41;4.37;;;1.47;;
19127;SDS011;9696;53.686;10.094;2023-03-14T07:49:11;5.30;;;1.20;;
19127;SDS011;9696;53.686;10.094;2023-03-14T07:51:40;5.50;;;1.53;;
19127;SDS011;9696;53.686;10.094;2023-03-14T07:54:10;6.90;;;1.67;;
19127;SDS011;9696;53.686;10.094;2023-03-14T07:56:41;9.53;;;1.30;;
19127;SDS011;9696;53.686;10.094;2023-03-14T07:59:10;6.97;;;1.77;;
19127;SDS011;9696;53.686;10.094;2023-03-14T08:01:39;5.03;;;1.30;;
19127;SDS011;9696;53.686;10.094;2023-03-14T08:04:09;5.80;;;1.50;;
19127;SDS011;9696;53.686;10.094;2023-03-14T08:06:38;2.63;;;1.00;;
19127;SDS011;9696;53.686;10.094;2023-03-14T08:09:07;3.93;;;1.33;;
19127;SDS011;9696;53.686;10.094;2023-03-14T08:11:37;7.00;;;1.77;;
19127;SDS011;9696;53.686;10.094;2023-03-14T08:14:07;3.73;;;1.30;;
19127;SDS011;9696;53.686;10.094;2023-03-14T08:16:37;6.73;;;1.50;;
19127;SDS011;9696;53.686;10.094;2023-03-14T08:19:07;3.43;;;1.33;;
19127;SDS011;9696;53.686;10.094;2023-03-14T08:21:36;6.40;;;1.50;;
19127;SDS011;9696;53.686;10.094;2023-03-14T08:24:05;5.70;;;1.40;;
19127;SDS011;9696;53.686;10.094;2023-03-14T08:26:35;3.57;;;1.63;;
19127;SDS011;9696;53.686;10.094;2023-03-14T08:29:04;2.27;;;1.07;;
19127;SDS011;9696;53.686;10.094;2023-03-14T08:31:36;3.57;;;1.50;;
19127;SDS011;9696;53.686;10.094;2023-03-14T08:34:05;2.23;;;1.03;;
19127;SDS011;9696;53.686;10.094;2023-03-14T08:36:34;6.87;;;1.20;;
19127;SDS011;9696;53.686;10.094;2023-03-14T08:39:04;4.47;;;1.13;;
19127;SDS011;9696;53.686;10.094;2023-03-14T08:41:34;3.97;;;1.23;;
19127;SDS011;9696;53.686;10.094;2023-03-14T08:44:07;3.13;;;1.47;;
19127;SDS011;9696;53.686;10.094;2023-03-14T08:46:38;5.43;;;0.93;;
19127;SDS011;9696;53.686;10.094;2023-03-14T08:49:07;6.27;;;1.47;;
19127;SDS011;9696;53.686;10.094;2023-03-14T08:51:36;3.97;;;1.40;;
19127;SDS011;9696;53.686;10.094;2023-03-14T08:54:05;5.67;;;1.20;;
19127;SDS011;9696;53.686;10.094;2023-03-14T08:56:37;2.83;;;1.30;;
19127;SDS011;9696;53.686;10.094;2023-03-14T08:59:06;3.47;;;1.00;;
19127;SDS011;9696;53.686;10.094;2023-03-14T09:01:39;3.80;;;1.20;;
19127;SDS011;9696;53.686;10.094;2023-03-14T09:04:08;7.47;;;1.60;;
19127;SDS011;9696;53.686;10.094;2023-03-14T09:06:37;7.37;;;1.47;;
19127;SDS011;9696;53.686;10.094;2023-03-14T09:09:07;2.90;;;1.33;;
19127;SDS011;9696;53.686;10.094;2023-03-14T09:11:36;3.87;;;1.07;;
19127;SDS011;9696;53.686;10.094;2023-03-14T09:14:05;3.00;;;1.30;;
19127;SDS011;9696;53.686;10.094;2023-03-14T09:16:34;4.83;;;1.13;;
19127;SDS011;9696;53.686;10.094;2023-03-14T09:19:05;7.03;;;1.63;;
19127;SDS011;9696;53.686;10.094;2023-03-14T09:21:34;2.50;;;1.43;;
19127;SDS011;9696;53.686;10.094;2023-03-14T09:24:04;4.67;;;1.67;;
19127;SDS011;9696;53.686;10.094;2023-03-14T09:26:34;6.53;;;1.97;;
19127;SDS011;9696;53.686;10.094;2023-03-14T09:29:03;6.43;;;2.13;;
19127;SDS011;9696;53.686;10.094;2023-03-14T09:31:32;5.43;;;1.70;;
19127;SDS011;9696;53.686;10.094;2023-03-14T09:34:02;8.77;;;2.33;;
19127;SDS011;9696;53.686;10.094;2023-03-14T09:36:33;3.47;;;1.30;;
19127;SDS011;9696;53.686;10.094;2023-03-14T09:39:02;5.30;;;1.67;;
19127;SDS011;9696;53.686;10.094;2023-03-14T09:41:31;7.63;;;1.97;;
19127;SDS011;9696;53.686;10.094;2023-03-14T09:44:04;2.83;;;1.57;;
19127;SDS011;9696;53.686;10.094;2023-03-14T09:46:37;4.47;;;1.90;;
19127;SDS011;9696;53.686;10.094;2023-03-14T09:49:11;8.33;;;1.87;;
19127;SDS011;9696;53.686;10.094;2023-03-14T09:51:45;4.20;;;2.23;;
19127;SDS011;9696;53.686;10.094;2023-03-14T09:54:24;8.13;;;2.10;;
19127;SDS011;9696;53.686;10.094;2023-03-14T09:56:59;2.83;;;0.73;;
19127;SDS011;9696;53.686;10.094;2023-03-14T09:59:28;0.27;;;0.23;;
19127;SDS011;9696;53.686;10.094;2023-03-14T10:01:58;1.70;;;0.60;;
19127;SDS011;9696;53.686;10.094;2023-03-14T10:04:31;0.10;;;0.10;;
19127;SDS011;9696;53.686;10.094;2023-03-14T10:07:01;0.53;;;0.43;;
19127;SDS011;9696;53.686;10.094;2023-03-14T10:09:31;4.60;;;0.93;;
19127;SDS011;9696;53.686;10.094;2023-03-14T10:12:02;3.17;;;0.80;;
19127;SDS011;9696;53.686;10.094;2023-03-14T10:14:36;0.60;;;0.40;;
19127;SDS011;9696;53.686;10.094;2023-03-14T10:17:12;1.93;;;0.40;;
19127;SDS011;9696;53.686;10.094;2023-03-14T10:22:31;3.60;;;0.70;;
19127;SDS011;9696;53.686;10.094;2023-03-14T10:25:01;0.40;;;0.40;;
19127;SDS011;9696;53.686;10.094;2023-03-14T10:27:33;1.43;;;0.60;;
19127;SDS011;9696;53.686;10.094;2023-03-14T10:30:04;1.27;;;0.40;;
19127;SDS011;9696;53.686;10.094;2023-03-14T10:32:36;1.10;;;0.50;;
19127;SDS011;9696;53.686;10.094;2023-03-14T10:35:17;0.17;;;0.17;;
19127;SDS011;9696;53.686;10.094;2023-03-14T10:37:48;0.50;;;0.30;;
19127;SDS011;9696;53.686;10.094;2023-03-14T10:40:23;0.30;;;0.30;;
19127;SDS011;9696;53.686;10.094;2023-03-14T10:42:57;3.47;;;0.50;;
19127;SDS011;9696;53.686;10.094;2023-03-14T10:45:29;0.43;;;0.30;;
19127;SDS011;9696;53.686;10.094;2023-03-14T10:48:20;0.40;;;0.40;;
19127;SDS011;9696;53.686;10.094;2023-03-14T10:50:56;0.40;;;0.40;;
19127;SDS011;9696;53.686;10.094;2023-03-14T10:53:34;1.63;;;0.70;;
19127;SDS011;9696;53.686;10.094;2023-03-14T10:56:12;0.40;;;0.40;;
19127;SDS011;9696;53.686;10.094;2023-03-14T10:58:43;0.40;;;0.40;;
19127;SDS011;9696;53.686;10.094;2023-03-14T11:01:17;0.30;;;0.20;;
19127;SDS011;9696;53.686;10.094;2023-03-14T11:03:59;0.30;;;0.30;;
19127;SDS011;9696;53.686;10.094;2023-03-14T11:06:35;2.20;;;0.50;;
19127;SDS011;9696;53.686;10.094;2023-03-14T11:09:11;0.70;;;0.30;;
19127;SDS011;9696;53.686;10.094;2023-03-14T11:11:48;0.73;;;0.33;;
19127;SDS011;9696;53.686;10.094;2023-03-14T11:14:23;1.90;;;0.60;;
19127;SDS011;9696;53.686;10.094;2023-03-14T11:16:59;1.53;;;0.40;;
19127;SDS011;9696;53.686;10.094;2023-03-14T11:19:39;4.33;;;0.30;;
19127;SDS011;9696;53.686;10.094;2023-03-14T11:22:23;0.77;;;0.63;;
19127;SDS011;9696;53.686;10.094;2023-03-14T11:25:06;0.60;;;0.40;;
19127;SDS011;9696;53.686;10.094;2023-03-14T11:27:45;0.40;;;0.40;;
19127;SDS011;9696;53.686;10.094;2023-03-14T11:30:24;0.33;;;0.33;;
19127;SDS011;9696;53.686;10.094;2023-03-14T11:33:02;1.37;;;0.57;;
19127;SDS011;9696;53.686;10.094;2023-03-14T11:35:37;1.60;;;0.60;;
19127;SDS011;9696;53.686;10.094;2023-03-14T11:38:15;2.13;;;0.77;;
19127;SDS011;9696;53.686;10.094;2023-03-14T11:40:53;3.03;;;0.60;;
19127;SDS011;9696;53.686;10.094;2023-03-14T11:43:26;4.53;;;0.67;;
19127;SDS011;9696;53.686;10.094;2023-03-14T11:46:01;0.60;;;0.60;;
19127;SDS011;9696;53.686;10.094;2023-03-14T11:48:40;3.60;;;0.63;;
19127;SDS011;9696;53.686;10.094;2023-03-14T11:51:14;2.10;;;0.63;;
19127;SDS011;9696;53.686;10.094;2023-03-14T11:53:59;2.53;;;0.90;;
19127;SDS011;9696;53.686;10.094;2023-03-14T11:56:37;4.50;;;0.97;;
19127;SDS011;9696;53.686;10.094;2023-03-14T11:59:14;4.63;;;1.00;;
19127;SDS011;9696;53.686;10.094;2023-03-14T12:01:54;3.57;;;0.80;;
19127;SDS011;9696;53.686;10.094;2023-03-14T12:04:39;12.93;;;0.87;;
19127;SDS011;9696;53.686;10.094;2023-03-14T12:07:17;9.70;;;0.70;;
19127;SDS011;9696;53.686;10.094;2023-03-14T12:09:50;2.77;;;0.70;;
19127;SDS011;9696;53.686;10.094;2023-03-14T12:12:21;7.37;;;0.90;;
19127;SDS011;9696;53.686;10.094;2023-03-14T12:14:54;4.83;;;1.00;;
19127;SDS011;9696;53.686;10.094;2023-03-14T12:17:26;2.47;;;0.80;;
19127;SDS011;9696;53.686;10.094;2023-03-14T12:20:04;5.77;;;0.97;;
19127;SDS011;9696;53.686;10.094;2023-03-14T12:22:42;2.63;;;1.33;;
19127;SDS011;9696;53.686;10.094;2023-03-14T12:25:16;3.67;;;0.67;;
19127;SDS011;9696;53.686;10.094;2023-03-14T12:30:47;3.17;;;0.97;;
19127;SDS011;9696;53.686;10.094;2023-03-14T12:33:26;6.20;;;0.97;;
19127;SDS011;9696;53.686;10.094;2023-03-14T12:39:01;5.27;;;1.40;;
19127;SDS011;9696;53.686;10.094;2023-03-14T12:41:43;8.50;;;1.27;;
19127;SDS011;9696;53.686;10.094;2023-03-14T12:50:18;3.53;;;0.77;;
19127;SDS011;9696;53.686;10.094;2023-03-14T12:56:17;24.63;;;1.60;;
19127;SDS011;9696;53.686;10.094;2023-03-14T12:58:57;6.03;;;1.17;;
19127;SDS011;9696;53.686;10.094;2023-03-14T13:01:47;8.97;;;0.93;;
19127;SDS011;9696;53.686;10.094;2023-03-14T13:04:26;4.83;;;1.40;;
19127;SDS011;9696;53.686;10.094;2023-03-14T13:07:10;3.23;;;1.10;;
19127;SDS011;9696;53.686;10.094;2023-03-14T13:12:34;9.53;;;1.10;;
19127;SDS011;9696;53.686;10.094;2023-03-14T13:15:15;5.07;;;1.30;;
19127;SDS011;9696;53.686;10.094;2023-03-14T13:17:47;2.93;;;0.70;;
19127;SDS011;9696;53.686;10.094;2023-03-14T13:20:20;3.53;;;1.20;;
19127;SDS011;9696;53.686;10.094;2023-03-14T13:22:56;7.90;;;1.67;;
19127;SDS011;9696;53.686;10.094;2023-03-14T13:25:28;10.23;;;1.43;;
19127;SDS011;9696;53.686;10.094;2023-03-14T13:28:01;10.73;;;1.60;;
19127;SDS011;9696;53.686;10.094;2023-03-14T13:30:38;4.03;;;1.77;;
19127;SDS011;9696;53.686;10.094;2023-03-14T13:33:14;8.67;;;1.50;;
19127;SDS011;9696;53.686;10.094;2023-03-14T13:35:45;15.80;;;1.73;;
19127;SDS011;9696;53.686;10.094;2023-03-14T13:38:16;10.13;;;1.57;;
19127;SDS011;9696;53.686;10.094;2023-03-14T13:40:48;9.47;;;1.37;;
19127;SDS011;9696;53.686;10.094;2023-03-14T13:43:19;11.50;;;1.37;;
19127;SDS011;9696;53.686;10.094;2023-03-14T13:45:53;9.97;;;1.50;;
19127;SDS011;9696;53.686;10.094;2023-03-14T13:48:26;4.93;;;1.03;;
19127;SDS011;9696;53.686;10.094;2023-03-14T13:50:58;5.57;;;1.10;;
19127;SDS011;9696;53.686;10.094;2023-03-14T13:53:29;5.00;;;0.77;;
19127;SDS011;9696;53.686;10.094;2023-03-14T13:56:01;4.63;;;0.97;;
19127;SDS011;9696;53.686;10.094;2023-03-14T13:58:31;10.33;;;1.17;;
19127;SDS011;9696;53.686;10.094;2023-03-14T14:01:05;10.57;;;1.50;;
19127;SDS011;9696;53.686;10.094;2023-03-14T14:03:40;11.77;;;1.30;;
19127;SDS011;9696;53.686;10.094;2023-03-14T14:06:16;8.03;;;1.07;;
19127;SDS011;9696;53.686;10.094;2023-03-14T14:08:53;6.00;;;1.47;;
19127;SDS011;9696;53.686;10.094;2023-03-14T14:11:27;14.77;;;1.73;;
19127;SDS011;9696;53.686;10.094;2023-03-14T14:14:17;7.37;;;1.47;;
19127;SDS011;9696;53.686;10.094;2023-03-14T14:16:50;13.17;;;1.30;;
19127;SDS011;9696;53.686;10.094;2023-03-14T14:19:21;4.17;;;0.97;;
19127;SDS011;9696;53.686;10.094;2023-03-14T14:21:55;4.77;;;1.17;;
19127;SDS011;9696;53.686;10.094;2023-03-14T14:24:27;6.57;;;1.17;;
19127;SDS011;9696;53.686;10.094;2023-03-14T14:27:01;6.53;;;1.20;;
19127;SDS011;9696;53.686;10.094;2023-03-14T14:29:36;8.40;;;1.37;;
19127;SDS011;9696;53.686;10.094;2023-03-14T14:32:11;5.47;;;1.00;;
19127;SDS011;9696;53.686;10.094;2023-03-14T14:34:42;8.00;;;1.27;;
19127;SDS011;9696;53.686;10.094;2023-03-14T14:37:19;9.80;;;1.67;;
19127;SDS011;9696;53.686;10.094;2023-03-14T14:39:54;5.70;;;1.53;;
19127;SDS011;9696;53.686;10.094;2023-03-14T14:42:25;9.47;;;1.67;;
19127;SDS011;9696;53.686;10.094;2023-03-14T14:44:57;8.07;;;1.13;;
19127;SDS011;9696;53.686;10.094;2023-03-14T14:47:29;11.07;;;1.40;;
19127;SDS011;9696;53.686;10.094;2023-03-14T14:49:59;10.80;;;1.80;;
19127;SDS011;9696;53.686;10.094;2023-03-14T14:52:33;6.63;;;1.23;;
19127;SDS011;9696;53.686;10.094;2023-03-14T14:55:12;11.30;;;1.83;;
19127;SDS011;9696;53.686;10.094;2023-03-14T14:57:48;3.87;;;1.30;;
19127;SDS011;9696;53.686;10.094;2023-03-14T15:00:20;5.37;;;1.40;;
19127;SDS011;9696;53.686;10.094;2023-03-14T15:02:52;5.80;;;0.90;;
19127;SDS011;9696;53.686;10.094;2023-03-14T15:05:26;5.03;;;0.97;;
19127;SDS011;9696;53.686;10.094;2023-03-14T15:07:57;6.03;;;1.17;;
19127;SDS011;9696;53.686;10.094;2023-03-14T15:10:26;7.10;;;0.90;;
19127;SDS011;9696;53.686;10.094;2023-03-14T15:12:55;4.33;;;0.80;;
19127;SDS011;9696;53.686;10.094;2023-03-14T15:15:25;5.73;;;0.87;;
19127;SDS011;9696;53.686;10.094;2023-03-14T15:17:55;10.10;;;1.17;;
19127;SDS011;9696;53.686;10.094;2023-03-14T15:20:24;12.53;;;1.23;;
19127;SDS011;9696;53.686;10.094;2023-03-14T15:22:53;4.10;;;0.80;;
19127;SDS011;9696;53.686;10.094;2023-03-14T15:25:22;8.57;;;0.97;;
19127;SDS011;9696;53.686;10.094;2023-03-14T15:28:14;7.63;;;1.57;;
19127;SDS011;9696;53.686;10.094;2023-03-14T15:30:47;5.20;;;1.43;;
19127;SDS011;9696;53.686;10.094;2023-03-14T15:33:19;6.17;;;1.30;;
19127;SDS011;9696;53.686;10.094;2023-03-14T15:35:48;3.80;;;1.07;;
19127;SDS011;9696;53.686;10.094;2023-03-14T15:38:19;9.73;;;1.70;;
19127;SDS011;9696;53.686;10.094;2023-03-14T15:40:50;18.90;;;1.70;;
19127;SDS011;9696;53.686;10.094;2023-03-14T15:43:19;6.60;;;1.23;;
19127;SDS011;9696;53.686;10.094;2023-03-14T15:45:49;12.07;;;3.80;;
19127;SDS011;9696;53.686;10.094;2023-03-14T15:48:20;12.00;;;1.60;;